Time,TemperatureF,DewpointF,PressureIn,WindDirection,WindDirectionDegrees,WindSpeedMPH,WindSpeedGustMPH,Humidity,HourlyPrecipIn,Conditions,Clouds,dailyrainin,SoftwareType,DateUTC
2013-03-06 00:00:00,41.9,41.1,29.80,ESE,116,2.0,2.0,97,0.18,,,0.35,Wunderground v.1.15,2013-03-06 08:00:00,
2013-03-06 00:09:00,42.1,41.3,29.79,SE,124,2.0,2.0,97,0.07,,,0.36,Wunderground v.1.15,2013-03-06 08:09:00,
2013-03-06 00:14:00,42.1,41.3,29.79,East,99,2.0,10.0,97,0.07,,,0.36,Wunderground v.1.15,2013-03-06 08:14:00,
2013-03-06 00:20:00,42.1,41.3,29.79,ESE,117,3.0,3.0,97,0.08,,,0.37,Wunderground v.1.15,2013-03-06 08:20:00,
2013-03-06 00:29:00,42.1,41.3,29.80,ESE,102,1.0,10.0,97,0.20,,,0.39,Wunderground v.1.15,2013-03-06 08:29:00,
2013-03-06 00:40:00,42.1,41.3,29.80,SE,137,2.0,10.0,97,0.24,,,0.42,Wunderground v.1.15,2013-03-06 08:40:00,
2013-03-06 00:49:00,42.1,41.3,29.80,ESE,110,2.0,2.0,97,0.11,,,0.44,Wunderground v.1.15,2013-03-06 08:49:00,
2013-03-06 00:54:00,42.1,41.6,29.80,ESE,106,2.0,10.0,98,0.12,,,0.45,Wunderground v.1.15,2013-03-06 08:54:00,
2013-03-06 01:05:00,42.2,41.7,29.80,ESE,106,1.0,10.0,98,0.07,,,0.46,Wunderground v.1.15,2013-03-06 09:05:00,
2013-03-06 01:10:00,42.2,41.7,29.80,ESE,106,1.0,10.0,98,0.18,,,0.48,Wunderground v.1.15,2013-03-06 09:10:00,
2013-03-06 01:19:00,42.3,41.8,29.80,ESE,106,0.0,6.0,98,0.13,,,0.51,Wunderground v.1.15,2013-03-06 09:19:00,
2013-03-06 01:25:00,42.5,42.0,29.79,ESE,106,0.0,6.0,98,0.12,,,0.52,Wunderground v.1.15,2013-03-06 09:25:00,
2013-03-06 01:34:00,42.6,42.1,29.79,ESE,104,1.0,6.0,98,0.07,,,0.53,Wunderground v.1.15,2013-03-06 09:34:00,
2013-03-06 01:44:00,42.9,42.4,29.79,ESE,110,1.0,6.0,98,0.10,,,0.56,Wunderground v.1.15,2013-03-06 09:44:00,
2013-03-06 01:50:00,43.5,43.0,29.79,East,93,1.0,6.0,98,0.09,,,0.56,Wunderground v.1.15,2013-03-06 09:50:00,
2013-03-06 01:59:00,44.6,44.1,29.79,ESE,102,2.0,2.0,98,0.04,,,0.57,Wunderground v.1.15,2013-03-06 09:59:00,
2013-03-06 02:05:00,45.2,44.7,29.79,SE,141,3.0,3.0,98,0.17,,,0.58,Wunderground v.1.15,2013-03-06 10:05:00,
2013-03-06 02:15:00,45.7,45.2,29.78,ESE,106,2.0,10.0,98,0.23,,,0.61,Wunderground v.1.15,2013-03-06 10:15:00,
2013-03-06 02:24:00,45.8,45.3,29.79,ESE,116,3.0,8.0,98,0.13,,,0.63,Wunderground v.1.15,2013-03-06 10:24:00,
2013-03-06 02:30:00,46.0,45.5,29.79,ESE,113,2.0,8.0,98,0.16,,,0.64,Wunderground v.1.15,2013-03-06 10:30:00,
2013-03-06 02:39:00,46.1,45.6,29.80,SW,223,2.0,2.0,98,0.10,,,0.66,Wunderground v.1.15,2013-03-06 10:39:00,
2013-03-06 02:45:00,46.0,45.5,29.80,ESE,116,2.0,17.0,98,0.06,,,0.67,Wunderground v.1.15,2013-03-06 10:45:00,
2013-03-06 02:54:00,46.0,45.5,29.80,ESE,107,1.0,17.0,98,0.06,,,0.67,Wunderground v.1.15,2013-03-06 10:54:00,
2013-03-06 02:59:00,46.0,45.5,29.80,ESE,104,2.0,2.0,98,0.14,,,0.69,Wunderground v.1.15,2013-03-06 10:59:00,
2013-03-06 03:05:00,46.1,45.6,29.80,ESE,103,1.0,17.0,98,0.10,,,0.69,Wunderground v.1.15,2013-03-06 11:05:00,
2013-03-06 03:10:00,46.1,45.6,29.80,South,169,1.0,17.0,98,0.07,,,0.70,Wunderground v.1.15,2013-03-06 11:10:00,
2013-03-06 03:19:00,46.1,45.6,29.80,North,0,1.0,8.0,98,0.22,,,0.03,Wunderground v.1.15,2013-03-06 11:19:00,
2013-03-06 03:24:00,46.1,45.6,29.81,NE,48,1.0,8.0,98,0.11,,,0.04,Wunderground v.1.15,2013-03-06 11:24:00,
2013-03-06 03:30:00,45.8,45.3,29.81,SSE,147,2.0,2.0,98,0.07,,,0.04,Wunderground v.1.15,2013-03-06 11:30:00,
2013-03-06 03:39:00,45.5,45.0,29.81,SE,126,1.0,1.0,98,0.10,,,0.06,Wunderground v.1.15,2013-03-06 11:39:00,
2013-03-06 03:45:00,45.4,44.9,29.81,ESE,109,1.0,8.0,98,0.10,,,0.06,Wunderground v.1.15,2013-03-06 11:45:00,
2013-03-06 03:54:00,45.2,44.7,29.82,NE,48,1.0,2.0,98,0.04,,,0.06,Wunderground v.1.15,2013-03-06 11:54:00,
2013-03-06 04:04:00,45.2,44.7,29.82,ENE,71,1.0,8.0,98,0.00,,,0.07,Wunderground v.1.15,2013-03-06 12:04:00,
2013-03-06 04:10:00,45.4,44.9,29.82,ESE,109,1.0,8.0,98,0.00,,,0.07,Wunderground v.1.15,2013-03-06 12:10:00,
2013-03-06 04:19:00,45.7,45.2,29.82,NE,56,1.0,7.0,98,0.00,,,0.07,Wunderground v.1.15,2013-03-06 12:19:00,
2013-03-06 04:25:00,45.8,45.3,29.83,NNE,18,1.0,7.0,98,0.00,,,0.07,Wunderground v.1.15,2013-03-06 12:25:00,
2013-03-06 04:34:00,46.0,45.5,29.83,ENE,76,1.0,7.0,98,0.00,,,0.07,Wunderground v.1.15,2013-03-06 12:34:00,
2013-03-06 04:44:00,46.0,45.5,29.84,ENE,66,1.0,3.0,98,0.00,,,0.08,Wunderground v.1.15,2013-03-06 12:44:00,
2013-03-06 04:55:00,45.7,45.2,29.85,NW,322,1.0,8.0,98,0.00,,,0.08,Wunderground v.1.15,2013-03-06 12:55:00,
2013-03-06 05:00:00,45.2,44.7,29.85,NW,323,1.0,1.0,98,0.00,,,0.08,Wunderground v.1.15,2013-03-06 13:00:00,
2013-03-06 05:10:00,44.8,44.3,29.85,NW,323,0.0,8.0,98,0.00,,,0.08,Wunderground v.1.15,2013-03-06 13:10:00,
2013-03-06 05:15:00,44.6,44.1,29.85,ENE,61,0.0,8.0,98,0.00,,,0.08,Wunderground v.1.15,2013-03-06 13:15:00,
2013-03-06 05:24:00,44.6,44.1,29.86,ENE,62,0.0,5.0,98,0.00,,,0.08,Wunderground v.1.15,2013-03-06 13:24:00,
2013-03-06 05:30:00,44.6,44.1,29.86,ENE,62,0.0,5.0,98,0.00,,,0.08,Wunderground v.1.15,2013-03-06 13:30:00,
2013-03-06 05:40:00,44.6,44.1,29.86,ENE,62,0.0,5.0,98,0.00,,,0.08,Wunderground v.1.15,2013-03-06 13:40:00,
2013-03-06 05:50:00,44.5,44.0,29.86,ENE,62,0.0,3.0,98,0.00,,,0.08,Wunderground v.1.15,2013-03-06 13:50:00,
2013-03-06 05:55:00,44.2,43.7,29.86,ENE,62,0.0,3.0,98,0.00,,,0.08,Wunderground v.1.15,2013-03-06 13:55:00,
2013-03-06 06:04:00,43.6,43.1,29.86,ENE,62,0.0,3.0,98,0.00,,,0.08,Wunderground v.1.15,2013-03-06 14:04:00,
2013-03-06 06:10:00,43.3,42.8,29.87,ENE,71,1.0,1.0,98,0.00,,,0.08,Wunderground v.1.15,2013-03-06 14:10:00,
2013-03-06 06:19:00,42.6,42.1,29.87,ENE,71,0.0,5.0,98,0.00,,,0.08,Wunderground v.1.15,2013-03-06 14:19:00,
2013-03-06 06:29:00,42.1,41.6,29.88,ENE,72,1.0,1.0,98,0.00,,,0.08,Wunderground v.1.15,2013-03-06 14:29:00,
2013-03-06 06:35:00,41.8,41.3,29.88,ENE,72,0.0,5.0,98,0.00,,,0.08,Wunderground v.1.15,2013-03-06 14:35:00,
2013-03-06 06:44:00,41.2,40.7,29.89,ENE,72,0.0,5.0,98,0.00,,,0.08,Wunderground v.1.15,2013-03-06 14:44:00,
2013-03-06 06:50:00,40.9,40.4,29.89,ENE,72,0.0,3.0,98,0.00,,,0.08,Wunderground v.1.15,2013-03-06 14:50:00,
2013-03-06 07:00:00,40.8,40.3,29.89,ENE,72,0.0,3.0,98,0.00,,,0.08,Wunderground v.1.15,2013-03-06 15:00:00,
2013-03-06 07:10:00,41.1,40.6,29.90,ENE,72,0.0,3.0,98,0.00,,,0.08,Wunderground v.1.15,2013-03-06 15:10:00,
2013-03-06 07:19:00,41.3,40.8,29.90,ENE,72,0.0,1.0,98,0.00,,,0.08,Wunderground v.1.15,2013-03-06 15:19:00,
2013-03-06 07:25:00,41.6,41.1,29.91,ENE,72,0.0,1.0,98,0.00,,,0.08,Wunderground v.1.15,2013-03-06 15:25:00,
2013-03-06 07:35:00,42.8,42.3,29.91,ENE,72,0.0,1.0,98,0.00,,,0.08,Wunderground v.1.15,2013-03-06 15:35:00,
2013-03-06 07:44:00,43.6,43.1,29.91,ENE,72,0.0,2.0,98,0.00,,,0.08,Wunderground v.1.15,2013-03-06 15:44:00,
2013-03-06 07:50:00,44.2,43.7,29.91,ENE,72,0.0,2.0,98,0.00,,,0.08,Wunderground v.1.15,2013-03-06 15:50:00,
2013-03-06 08:00:00,44.9,44.4,29.91,ENE,72,0.0,2.0,98,0.00,,,0.08,Wunderground v.1.15,2013-03-06 16:00:00,
2013-03-06 08:09:00,45.4,45.1,29.92,ENE,72,0.0,2.0,99,0.00,,,0.08,Wunderground v.1.15,2013-03-06 16:09:00,
2013-03-06 08:15:00,45.4,44.9,29.92,ENE,72,0.0,2.0,98,0.00,,,0.08,Wunderground v.1.15,2013-03-06 16:15:00,
2013-03-06 08:24:00,46.4,45.9,29.92,ENE,72,0.0,2.0,98,0.00,,,0.08,Wunderground v.1.15,2013-03-06 16:24:00,
2013-03-06 08:35:00,47.3,47.0,29.92,ENE,72,0.0,2.0,99,0.00,,,0.08,Wunderground v.1.15,2013-03-06 16:35:00,
2013-03-06 08:40:00,47.3,47.0,29.93,ENE,72,0.0,2.0,99,0.00,,,0.08,Wunderground v.1.15,2013-03-06 16:40:00,
2013-03-06 08:49:00,46.8,46.5,29.93,ENE,72,1.0,2.0,99,0.00,,,0.08,Wunderground v.1.15,2013-03-06 16:49:00,
2013-03-06 08:59:00,47.4,47.1,29.93,ENE,72,1.0,2.0,99,0.00,,,0.08,Wunderground v.1.15,2013-03-06 16:59:00,
2013-03-06 09:05:00,47.4,47.1,29.93,ENE,72,1.0,2.0,99,0.00,,,0.08,Wunderground v.1.15,2013-03-06 17:05:00,
2013-03-06 09:14:00,47.9,47.6,29.94,East,82,1.0,3.0,99,0.00,,,0.08,Wunderground v.1.15,2013-03-06 17:14:00,
2013-03-06 09:24:00,47.1,46.6,29.95,East,82,1.0,3.0,98,0.00,,,0.08,Wunderground v.1.15,2013-03-06 17:24:00,
2013-03-06 09:30:00,47.1,46.6,29.95,East,82,1.0,1.0,98,0.00,,,0.08,Wunderground v.1.15,2013-03-06 17:30:00,
2013-03-06 09:39:00,47.3,46.8,29.95,East,82,0.0,3.0,98,0.00,,,0.08,Wunderground v.1.15,2013-03-06 17:39:00,
2013-03-06 09:49:00,48.0,47.5,29.95,East,82,1.0,3.0,98,0.00,,,0.08,Wunderground v.1.15,2013-03-06 17:49:00,
2013-03-06 09:55:00,48.5,47.7,29.95,East,83,1.0,3.0,97,0.00,,,0.08,Wunderground v.1.15,2013-03-06 17:55:00,
2013-03-06 10:04:00,48.9,47.2,29.95,East,83,0.0,3.0,94,0.00,,,0.08,Wunderground v.1.15,2013-03-06 18:04:00,
2013-03-06 10:10:00,49.1,46.9,29.95,East,83,0.0,3.0,92,0.00,,,0.08,Wunderground v.1.15,2013-03-06 18:10:00,
2013-03-06 10:19:00,48.8,45.4,29.95,East,83,0.0,3.0,88,0.00,,,0.08,Wunderground v.1.15,2013-03-06 18:19:00,
2013-03-06 10:25:00,49.1,46.0,29.96,East,83,0.0,3.0,89,0.00,,,0.08,Wunderground v.1.15,2013-03-06 18:25:00,
2013-03-06 10:34:00,48.8,43.9,29.96,East,83,0.0,3.0,83,0.00,,,0.08,Wunderground v.1.15,2013-03-06 18:34:00,
2013-03-06 10:40:00,49.2,45.2,29.96,East,83,0.0,3.0,86,0.00,,,0.08,Wunderground v.1.15,2013-03-06 18:40:00,
2013-03-06 10:49:00,49.2,44.3,29.96,ENE,61,0.0,2.0,83,0.00,,,0.08,Wunderground v.1.15,2013-03-06 18:49:00,
2013-03-06 10:59:00,49.6,44.3,29.96,ENE,61,0.0,2.0,82,0.00,,,0.08,Wunderground v.1.15,2013-03-06 18:59:00,
2013-03-06 11:05:00,50.2,44.9,29.96,ENE,61,0.0,2.0,82,0.00,,,0.08,Wunderground v.1.15,2013-03-06 19:05:00,
2013-03-06 11:14:00,51.0,46.0,29.96,East,88,1.0,3.0,83,0.00,,,0.08,Wunderground v.1.15,2013-03-06 19:14:00,
2013-03-06 11:20:00,51.4,45.4,29.96,East,88,1.0,1.0,80,0.00,,,0.08,Wunderground v.1.15,2013-03-06 19:20:00,
2013-03-06 11:29:00,51.6,46.0,29.96,East,88,0.0,3.0,81,0.00,,,0.08,Wunderground v.1.15,2013-03-06 19:29:00,
2013-03-06 11:35:00,51.7,45.1,29.96,East,88,0.0,3.0,78,0.00,,,0.08,Wunderground v.1.15,2013-03-06 19:35:00,
2013-03-06 11:44:00,51.6,46.3,29.96,East,89,1.0,5.0,82,0.00,,,0.08,Wunderground v.1.15,2013-03-06 19:44:00,
2013-03-06 11:50:00,51.0,42.3,29.96,ENE,65,1.0,5.0,72,0.00,,,0.08,Wunderground v.1.15,2013-03-06 19:50:00,
2013-03-06 12:00:00,51.0,45.0,29.96,ENE,64,1.0,1.0,80,0.00,,,0.08,Wunderground v.1.15,2013-03-06 20:00:00,
2013-03-06 12:09:00,51.4,45.8,29.95,ENE,65,1.0,5.0,81,0.00,,,0.08,Wunderground v.1.15,2013-03-06 20:09:00,
2013-03-06 12:15:00,51.4,45.8,29.95,ENE,66,1.0,5.0,81,0.00,,,0.08,Wunderground v.1.15,2013-03-06 20:15:00,
2013-03-06 12:24:00,51.1,45.1,29.95,ENE,72,1.0,3.0,80,0.00,,,0.08,Wunderground v.1.15,2013-03-06 20:24:00,
2013-03-06 12:35:00,51.1,44.5,29.95,ESE,112,1.0,3.0,78,0.00,,,0.08,Wunderground v.1.15,2013-03-06 20:35:00,
2013-03-06 12:44:00,51.6,43.9,29.95,ESE,110,1.0,2.0,75,0.00,,,0.08,Wunderground v.1.15,2013-03-06 20:44:00,
2013-03-06 12:49:00,51.7,43.0,29.95,East,93,1.0,5.0,72,0.00,,,0.08,Wunderground v.1.15,2013-03-06 20:49:00,
2013-03-06 12:55:00,51.6,43.2,29.94,East,93,1.0,5.0,73,0.00,,,0.08,Wunderground v.1.15,2013-03-06 20:55:00,
2013-03-06 13:04:00,51.6,45.0,29.94,East,93,0.0,5.0,78,0.00,,,0.08,Wunderground v.1.15,2013-03-06 21:04:00,
2013-03-06 13:10:00,51.9,45.3,29.94,East,93,0.0,5.0,78,0.00,,,0.08,Wunderground v.1.15,2013-03-06 21:10:00,
2013-03-06 13:19:00,52.9,45.9,29.94,East,95,2.0,5.0,77,0.00,,,0.08,Wunderground v.1.15,2013-03-06 21:19:00,
2013-03-06 13:25:00,52.9,43.0,29.93,East,86,2.0,5.0,69,0.00,,,0.08,Wunderground v.1.15,2013-03-06 21:25:00,
2013-03-06 13:35:00,52.6,44.9,29.93,East,88,1.0,5.0,75,0.00,,,0.08,Wunderground v.1.15,2013-03-06 21:35:00,
2013-03-06 13:44:00,52.3,46.0,29.93,East,88,1.0,5.0,79,0.00,,,0.08,Wunderground v.1.15,2013-03-06 21:44:00,
2013-03-06 13:50:00,52.5,46.2,29.93,East,88,1.0,5.0,79,0.00,,,0.08,Wunderground v.1.15,2013-03-06 21:50:00,
2013-03-06 13:55:00,52.3,46.0,29.93,East,97,1.0,5.0,79,0.00,,,0.08,Wunderground v.1.15,2013-03-06 21:55:00,
2013-03-06 14:05:00,51.7,45.1,29.93,ESE,119,2.0,5.0,78,0.00,,,0.08,Wunderground v.1.15,2013-03-06 22:05:00,
2013-03-06 14:15:00,51.1,45.1,29.93,ESE,121,1.0,6.0,80,0.00,,,0.08,Wunderground v.1.15,2013-03-06 22:15:00,
2013-03-06 14:24:00,50.2,44.6,29.93,ESE,120,0.0,6.0,81,0.00,,,0.08,Wunderground v.1.15,2013-03-06 22:24:00,
2013-03-06 14:30:00,50.1,44.8,29.93,ESE,120,1.0,1.0,82,0.00,,,0.08,Wunderground v.1.15,2013-03-06 22:30:00,
2013-03-06 14:39:00,50.1,44.5,29.94,ESE,120,1.0,1.0,81,0.00,,,0.08,Wunderground v.1.15,2013-03-06 22:39:00,
2013-03-06 14:49:00,50.2,44.9,29.94,ESE,120,0.0,3.0,82,0.00,,,0.08,Wunderground v.1.15,2013-03-06 22:49:00,
2013-03-06 14:59:00,50.4,44.1,29.93,ESE,120,1.0,3.0,79,0.00,,,0.08,Wunderground v.1.15,2013-03-06 22:59:00,
2013-03-06 15:04:00,50.2,44.3,29.93,ESE,120,1.0,3.0,80,0.00,,,0.08,Wunderground v.1.15,2013-03-06 23:04:00,
2013-03-06 15:10:00,50.4,44.5,29.94,ESE,120,0.0,3.0,80,0.00,,,0.08,Wunderground v.1.15,2013-03-06 23:10:00,
2013-03-06 15:20:00,50.4,45.1,29.94,ESE,120,0.0,3.0,82,0.00,,,0.08,Wunderground v.1.15,2013-03-06 23:20:00,
2013-03-06 15:29:00,50.1,44.8,29.94,ESE,120,0.0,3.0,82,0.00,,,0.08,Wunderground v.1.15,2013-03-06 23:29:00,
2013-03-06 15:39:00,49.8,44.2,29.94,ESE,120,0.0,3.0,81,0.00,,,0.08,Wunderground v.1.15,2013-03-06 23:39:00,
2013-03-06 15:44:00,49.8,44.5,29.93,ESE,120,0.0,3.0,82,0.00,,,0.08,Wunderground v.1.15,2013-03-06 23:44:00,
2013-03-06 15:55:00,49.6,44.0,29.93,ESE,120,0.0,2.0,81,0.00,,,0.08,Wunderground v.1.15,2013-03-06 23:55:00,
2013-03-06 16:04:00,49.5,44.2,29.93,ESE,120,0.0,2.0,82,0.00,,,0.08,Wunderground v.1.15,2013-03-07 00:04:00,
2013-03-06 16:09:00,49.4,44.5,29.93,ESE,120,0.0,2.0,83,0.00,,,0.08,Wunderground v.1.15,2013-03-07 00:09:00,
2013-03-06 16:15:00,49.2,44.3,29.93,ESE,120,0.0,2.0,83,0.00,,,0.08,Wunderground v.1.15,2013-03-07 00:15:00,
2013-03-06 16:24:00,48.9,43.6,29.93,ESE,120,0.0,2.0,82,0.00,,,0.08,Wunderground v.1.15,2013-03-07 00:24:00,
2013-03-06 16:34:00,48.8,43.9,29.93,ESE,120,0.0,2.0,83,0.00,,,0.08,Wunderground v.1.15,2013-03-07 00:34:00,
2013-03-06 16:39:00,48.6,43.7,29.93,ESE,120,0.0,2.0,83,0.00,,,0.08,Wunderground v.1.15,2013-03-07 00:39:00,
2013-03-06 16:45:00,48.5,43.6,29.93,ESE,120,0.0,2.0,83,0.00,,,0.08,Wunderground v.1.15,2013-03-07 00:45:00,
2013-03-06 16:54:00,48.3,44.0,29.93,ESE,120,0.0,2.0,85,0.00,,,0.08,Wunderground v.1.15,2013-03-07 00:54:00,
2013-03-06 17:00:00,48.3,44.0,29.93,ESE,120,0.0,2.0,85,0.00,,,0.08,Wunderground v.1.15,2013-03-07 01:00:00,
2013-03-06 17:05:00,48.0,43.7,29.93,ESE,120,0.0,2.0,85,0.00,,,0.08,Wunderground v.1.15,2013-03-07 01:05:00,
2013-03-06 17:14:00,47.7,43.7,29.92,ESE,120,0.0,2.0,86,0.00,,,0.08,Wunderground v.1.15,2013-03-07 01:14:00,
2013-03-06 17:24:00,47.4,43.7,29.92,ESE,120,0.0,1.0,87,0.00,,,0.08,Wunderground v.1.15,2013-03-07 01:24:00,
2013-03-06 17:30:00,47.3,43.6,29.92,ESE,120,0.0,1.0,87,0.00,,,0.08,Wunderground v.1.15,2013-03-07 01:30:00,
2013-03-06 17:39:00,46.8,43.1,29.92,ESE,120,0.0,1.0,87,0.00,,,0.08,Wunderground v.1.15,2013-03-07 01:39:00,
2013-03-06 17:45:00,46.7,43.0,29.92,ESE,120,0.0,1.0,87,0.00,,,0.08,Wunderground v.1.15,2013-03-07 01:45:00,
2013-03-06 17:54:00,46.2,42.8,29.92,ESE,120,0.0,1.0,88,0.00,,,0.08,Wunderground v.1.15,2013-03-07 01:54:00,
2013-03-06 18:00:00,46.0,42.9,29.92,ESE,120,0.0,1.0,89,0.00,,,0.08,Wunderground v.1.15,2013-03-07 02:00:00,
2013-03-06 18:09:00,45.4,42.3,29.92,ESE,120,0.0,1.0,89,0.00,,,0.08,Wunderground v.1.15,2013-03-07 02:09:00,
2013-03-06 18:15:00,45.2,42.2,29.92,ESE,120,0.0,1.0,89,0.00,,,0.08,Wunderground v.1.15,2013-03-07 02:15:00,
2013-03-06 18:24:00,44.9,42.1,29.92,ESE,120,0.0,0.0,90,0.00,,,0.08,Wunderground v.1.15,2013-03-07 02:24:00,
2013-03-06 18:30:00,44.6,41.8,29.92,ESE,120,0.0,0.0,90,0.00,,,0.08,Wunderground v.1.15,2013-03-07 02:30:00,
2013-03-06 18:39:00,44.2,41.5,29.92,ESE,120,0.0,0.0,90,0.00,,,0.08,Wunderground v.1.15,2013-03-07 02:39:00,
2013-03-06 18:49:00,43.6,41.1,29.92,ESE,120,0.0,0.0,91,0.00,,,0.08,Wunderground v.1.15,2013-03-07 02:49:00,
2013-03-06 18:59:00,43.3,40.8,29.92,ESE,120,0.0,0.0,91,0.00,,,0.08,Wunderground v.1.15,2013-03-07 02:59:00,
2013-03-06 19:04:00,43.1,40.9,29.92,ESE,120,0.0,0.0,92,0.00,,,0.08,Wunderground v.1.15,2013-03-07 03:04:00,
2013-03-06 19:10:00,43.1,40.9,29.92,ESE,120,0.0,0.0,92,0.00,,,0.08,Wunderground v.1.15,2013-03-07 03:10:00,
2013-03-06 19:19:00,42.8,40.6,29.92,ESE,120,0.0,0.0,92,0.00,,,0.08,Wunderground v.1.15,2013-03-07 03:19:00,
2013-03-06 19:25:00,42.6,40.4,29.91,ESE,120,0.0,0.0,92,0.00,,,0.08,Wunderground v.1.15,2013-03-07 03:25:00,
2013-03-06 19:34:00,42.5,40.6,29.91,ESE,120,0.0,0.0,93,0.00,,,0.08,Wunderground v.1.15,2013-03-07 03:34:00,
2013-03-06 19:45:00,42.1,40.2,29.92,ESE,120,0.0,0.0,93,0.00,,,0.08,Wunderground v.1.15,2013-03-07 03:45:00,
2013-03-06 19:50:00,41.8,39.9,29.92,ESE,120,0.0,0.0,93,0.00,,,0.08,Wunderground v.1.15,2013-03-07 03:50:00,
2013-03-06 19:59:00,41.5,39.6,29.92,ESE,120,0.0,0.0,93,0.00,,,0.08,Wunderground v.1.15,2013-03-07 03:59:00,
2013-03-06 20:05:00,41.3,39.4,29.92,ESE,120,0.0,0.0,93,0.00,,,0.08,Wunderground v.1.15,2013-03-07 04:05:00,
2013-03-06 20:14:00,41.3,39.7,29.92,ESE,120,0.0,0.0,94,0.00,,,0.08,Wunderground v.1.15,2013-03-07 04:14:00,
2013-03-06 20:20:00,41.5,40.2,29.92,ESE,120,0.0,0.0,95,0.00,,,0.08,Wunderground v.1.15,2013-03-07 04:20:00,
2013-03-06 20:29:00,41.5,40.4,29.91,ESE,120,0.0,0.0,96,0.00,,,0.08,Wunderground v.1.15,2013-03-07 04:29:00,
2013-03-06 20:39:00,41.6,40.5,29.91,ESE,120,0.0,0.0,96,0.00,,,0.08,Wunderground v.1.15,2013-03-07 04:39:00,
2013-03-06 20:44:00,41.3,40.0,29.90,ESE,120,0.0,0.0,95,0.00,,,0.08,Wunderground v.1.15,2013-03-07 04:44:00,
2013-03-06 20:50:00,41.1,39.8,29.90,ESE,120,0.0,0.0,95,0.00,,,0.08,Wunderground v.1.15,2013-03-07 04:50:00,
2013-03-06 20:59:00,40.9,39.8,29.90,ESE,120,0.0,0.0,96,0.00,,,0.08,Wunderground v.1.15,2013-03-07 04:59:00,
2013-03-06 21:05:00,40.9,39.8,29.90,ESE,120,0.0,0.0,96,0.00,,,0.08,Wunderground v.1.15,2013-03-07 05:05:00,
2013-03-06 21:09:00,40.8,39.7,29.90,ESE,120,0.0,0.0,96,0.00,,,0.08,Wunderground v.1.15,2013-03-07 05:09:00,
2013-03-06 21:15:00,40.6,39.5,29.90,ESE,120,0.0,0.0,96,0.00,,,0.08,Wunderground v.1.15,2013-03-07 05:15:00,
2013-03-06 21:20:00,40.3,39.3,29.90,ESE,120,0.0,0.0,96,0.00,,,0.08,Wunderground v.1.15,2013-03-07 05:20:00,
2013-03-06 21:30:00,40.3,39.3,29.91,ESE,120,0.0,0.0,96,0.00,,,0.08,Wunderground v.1.15,2013-03-07 05:30:00,
2013-03-06 21:40:00,40.1,39.1,29.90,ESE,120,0.0,0.0,96,0.00,,,0.08,Wunderground v.1.15,2013-03-07 05:40:00,
2013-03-06 21:50:00,39.9,38.9,29.90,ESE,120,0.0,0.0,96,0.00,,,0.08,Wunderground v.1.15,2013-03-07 05:50:00,
2013-03-06 21:59:00,39.8,38.8,29.90,ESE,120,0.0,0.0,96,0.00,,,0.08,Wunderground v.1.15,2013-03-07 05:59:00,
2013-03-06 22:05:00,39.6,38.6,29.90,ESE,120,0.0,0.0,96,0.00,,,0.08,Wunderground v.1.15,2013-03-07 06:05:00,
2013-03-06 22:14:00,39.3,38.3,29.90,ESE,120,0.0,1.0,96,0.00,,,0.08,Wunderground v.1.15,2013-03-07 06:14:00,
2013-03-06 22:20:00,39.3,38.3,29.90,ESE,120,0.0,1.0,96,0.00,,,0.08,Wunderground v.1.15,2013-03-07 06:20:00,
2013-03-06 22:29:00,39.3,38.3,29.90,ESE,120,0.0,1.0,96,0.00,,,0.08,Wunderground v.1.15,2013-03-07 06:29:00,
2013-03-06 22:40:00,39.1,37.8,29.90,ESE,120,0.0,1.0,95,0.00,,,0.08,Wunderground v.1.15,2013-03-07 06:40:00,
2013-03-06 22:49:00,38.9,37.3,29.90,ESE,120,0.0,1.0,94,0.00,,,0.08,Wunderground v.1.15,2013-03-07 06:49:00,
2013-03-06 22:55:00,38.8,37.2,29.89,ESE,120,0.0,1.0,94,0.00,,,0.08,Wunderground v.1.15,2013-03-07 06:55:00,
2013-03-06 23:04:00,38.9,37.6,29.89,ESE,120,0.0,1.0,95,0.00,,,0.08,Wunderground v.1.15,2013-03-07 07:04:00,
2013-03-06 23:10:00,39.1,37.8,29.89,ESE,120,0.0,1.0,95,0.00,,,0.08,Wunderground v.1.15,2013-03-07 07:10:00,
2013-03-06 23:19:00,39.2,37.9,29.89,ESE,120,0.0,1.0,95,0.00,,,0.08,Wunderground v.1.15,2013-03-07 07:19:00,
2013-03-06 23:25:00,39.3,37.7,29.89,ESE,120,0.0,1.0,94,0.00,,,0.08,Wunderground v.1.15,2013-03-07 07:25:00,
2013-03-06 23:34:00,39.3,37.7,29.89,ESE,120,0.0,1.0,94,0.00,,,0.08,Wunderground v.1.15,2013-03-07 07:34:00,
2013-03-06 23:40:00,39.3,37.7,29.88,ESE,120,0.0,1.0,94,0.00,,,0.08,Wunderground v.1.15,2013-03-07 07:40:00,
2013-03-06 23:49:00,39.3,37.7,29.88,ESE,120,0.0,0.0,94,0.00,,,0.08,Wunderground v.1.15,2013-03-07 07:49:00,
2013-03-06 23:55:00,39.2,37.3,29.88,ESE,120,0.0,0.0,93,0.00,,,0.08,Wunderground v.1.15,2013-03-07 07:55:00,